Tariffville, Connecticut
Current Conditions -  °F | °C
As of 9:51 AM on Monday 22 Dec 2014 (Local Time) from KBDL Reporting Station
Broken Clouds Broken Clouds  
Wind Chill: 33°   Ceiling: 1300
Heat Index: 37°   Visibility: 10mi
Dew Point: 31°   Wind: 5mph
Humidity: 79%   Direction: 360°N
Pressure: 30.36"   Gusts: NA
Location:  41.91°N, 72.77°W
Report Text: KBDL 221451Z 36004KT 10SM BKN013 BKN045 03/M01 A3036 RMK AO2 SLP281 T00281006 53004
Loading
Personal Weather Stations






























Interactive Weather Map New forecast layout! Learn more

10-Day Weather Forecast

Advertisements
Track Severe Weather on mobile